createdAt,value
2018-03-19T00:00:15.750Z,93.10
2018-03-19T00:02:43.334Z,92.50
2018-03-19T00:05:10.931Z,92.60
2018-03-19T00:07:38.523Z,92.80
2018-03-19T00:10:06.109Z,92.50
2018-03-19T00:12:33.679Z,92.10
2018-03-19T00:15:01.279Z,92.50
2018-03-19T00:17:28.848Z,92.30
2018-03-19T00:19:56.421Z,92.60
2018-03-19T00:22:24.027Z,92.60
2018-03-19T00:24:51.605Z,92.70
2018-03-19T00:27:19.936Z,92.60
2018-03-19T00:29:47.545Z,92.50
2018-03-19T00:32:15.925Z,92.40
2018-03-19T00:34:44.255Z,92.80
2018-03-19T00:37:11.835Z,92.80
2018-03-19T00:39:39.391Z,92.90
2018-03-19T00:42:06.947Z,92.90
2018-03-19T00:44:34.533Z,92.60
2018-03-19T00:47:02.099Z,92.50
2018-03-19T00:49:30.426Z,92.60
2018-03-19T00:51:58.780Z,93.00
2018-03-19T00:54:26.331Z,92.70
2018-03-19T00:56:53.903Z,92.70
2018-03-19T00:59:21.493Z,92.40
2018-03-19T01:01:49.055Z,92.30
2018-03-19T01:04:16.621Z,92.20
2018-03-19T01:06:44.230Z,92.40
2018-03-19T01:09:12.573Z,92.90
2018-03-19T01:11:40.142Z,92.80
2018-03-19T01:14:07.744Z,92.40
2018-03-19T01:16:35.328Z,92.90
2018-03-19T01:19:02.890Z,92.60
2018-03-19T01:21:30.525Z,92.80
2018-03-19T01:23:58.098Z,92.60
2018-03-19T01:26:25.676Z,92.50
2018-03-19T01:28:53.272Z,92.70
2018-03-19T01:31:20.854Z,92.60
2018-03-19T01:33:49.187Z,92.20
2018-03-19T01:36:16.805Z,92.10
2018-03-19T01:38:44.369Z,92.50
2018-03-19T01:41:11.934Z,92.30
2018-03-19T01:43:39.534Z,92.40
2018-03-19T01:46:07.101Z,92.60
2018-03-19T01:48:34.679Z,92.20
2018-03-19T01:51:02.269Z,92.00
2018-03-19T01:53:29.854Z,92.60
2018-03-19T01:55:57.420Z,92.10
2018-03-19T01:58:25.017Z,92.30
2018-03-19T02:00:52.593Z,92.10
2018-03-19T02:03:20.923Z,92.30
2018-03-19T02:05:48.529Z,92.20
2018-03-19T02:08:16.860Z,92.00
2018-03-19T02:10:44.422Z,92.00
2018-03-19T02:13:12.022Z,92.00
2018-03-19T02:15:39.593Z,92.00
2018-03-19T02:18:07.929Z,91.90
2018-03-19T02:20:35.516Z,91.90
2018-03-19T02:23:03.087Z,92.30
2018-03-19T02:25:31.423Z,92.60
2018-03-19T02:27:59.011Z,92.50
2018-03-19T02:30:26.589Z,92.40
2018-03-19T02:32:54.962Z,92.50
2018-03-19T02:35:23.175Z,92.40
2018-03-19T02:37:50.933Z,92.40
2018-03-19T02:40:18.503Z,92.30
2018-03-19T02:42:46.103Z,92.20
2018-03-19T02:45:13.760Z,92.10
2018-03-19T02:47:41.307Z,92.20
2018-03-19T02:50:08.918Z,92.60
2018-03-19T02:52:37.244Z,92.50
2018-03-19T02:55:04.815Z,92.50
2018-03-19T02:57:32.444Z,92.50
2018-03-19T03:00:00.011Z,92.60
2018-03-19T03:02:27.590Z,92.70
2018-03-19T03:04:55.197Z,92.60
2018-03-19T03:07:23.536Z,92.50
2018-03-19T03:09:51.094Z,92.50
2018-03-19T03:12:19.449Z,92.60
2018-03-19T03:14:47.026Z,92.60
2018-03-19T03:17:14.626Z,92.50
2018-03-19T03:19:42.226Z,92.50
2018-03-19T03:22:09.800Z,92.60
2018-03-19T03:24:37.384Z,92.70
2018-03-19T03:27:04.972Z,92.30
2018-03-19T03:29:32.535Z,92.20
2018-03-19T03:32:00.113Z,92.50
2018-03-19T03:34:27.717Z,92.50
2018-03-19T03:36:55.290Z,92.20
2018-03-19T03:39:22.876Z,92.30
2018-03-19T03:41:50.497Z,92.60
2018-03-19T03:44:18.071Z,92.20
2018-03-19T03:46:45.631Z,92.50
2018-03-19T03:49:13.218Z,91.80
2018-03-19T03:51:41.572Z,92.50
2018-03-19T03:54:09.145Z,92.50
2018-03-19T03:56:36.780Z,92.40
2018-03-19T03:59:04.339Z,92.20
2018-03-19T04:01:31.886Z,92.00
2018-03-19T04:03:59.490Z,92.40
2018-03-19T04:06:27.059Z,92.60
2018-03-19T04:08:54.664Z,92.70
2018-03-19T04:11:22.261Z,92.80
2018-03-19T04:13:49.996Z,92.40
2018-03-19T04:16:17.555Z,92.20
2018-03-19T04:18:45.143Z,92.30
2018-03-19T04:21:12.704Z,92.30
2018-03-19T04:23:40.280Z,92.30
2018-03-19T04:26:07.880Z,92.30
2018-03-19T04:28:36.213Z,92.20
2018-03-19T04:31:03.780Z,92.20
2018-03-19T04:33:31.371Z,92.90
2018-03-19T04:35:59.709Z,92.90
2018-03-19T04:38:27.294Z,92.80
2018-03-19T04:40:55.668Z,92.50
2018-03-19T04:43:23.230Z,92.50
2018-03-19T04:45:50.788Z,92.30
2018-03-19T04:48:18.383Z,92.20
2018-03-19T04:50:45.967Z,92.80
2018-03-19T04:53:13.523Z,92.40
2018-03-19T04:55:41.100Z,92.50
2018-03-19T04:58:08.680Z,92.60
2018-03-19T05:00:36.258Z,92.50
2018-03-19T05:03:03.878Z,92.60
2018-03-19T05:05:31.472Z,92.20
2018-03-19T05:07:59.833Z,91.90
2018-03-19T05:10:27.439Z,91.90
2018-03-19T05:12:55.784Z,92.20
2018-03-19T05:15:23.347Z,92.20
2018-03-19T05:17:50.970Z,92.20
2018-03-19T05:20:18.542Z,92.20
2018-03-19T05:22:46.131Z,92.10
2018-03-19T05:25:13.733Z,92.20
2018-03-19T05:27:41.297Z,92.30
2018-03-19T05:30:08.895Z,92.00
2018-03-19T05:32:38.116Z,92.30
2018-03-19T05:35:05.689Z,92.50
2018-03-19T05:37:34.029Z,92.50
2018-03-19T05:40:01.614Z,92.70
2018-03-19T05:42:29.179Z,92.20
2018-03-19T05:44:56.786Z,92.50
2018-03-19T05:47:24.391Z,92.20
2018-03-19T05:49:51.960Z,92.20
2018-03-19T05:52:19.539Z,92.20
2018-03-19T05:54:47.126Z,92.20
2018-03-19T05:57:14.701Z,91.90
2018-03-19T05:59:42.272Z,92.10
2018-03-19T06:02:09.888Z,92.20
2018-03-19T06:04:37.553Z,92.10
2018-03-19T06:07:05.928Z,92.00
2018-03-19T06:09:33.538Z,92.00
2018-03-19T06:12:01.128Z,91.70
2018-03-19T06:14:28.683Z,91.90
2018-03-19T06:16:56.265Z,91.60
2018-03-19T06:19:24.588Z,91.90
2018-03-19T06:21:52.160Z,91.90
2018-03-19T06:24:19.759Z,91.90
2018-03-19T06:26:48.110Z,91.60
2018-03-19T06:29:15.682Z,91.50
2018-03-19T06:31:43.303Z,91.70
2018-03-19T06:34:10.960Z,91.30
2018-03-19T06:36:38.552Z,91.10
2018-03-19T06:39:06.183Z,91.10
2018-03-19T06:41:33.770Z,91.00
2018-03-19T06:44:01.336Z,90.80
2018-03-19T06:46:29.727Z,90.50
2018-03-19T06:48:57.330Z,90.40
2018-03-19T06:51:24.911Z,90.50
2018-03-19T06:53:52.510Z,90.80
2018-03-19T06:56:20.104Z,91.10
2018-03-19T06:58:48.687Z,90.80
2018-03-19T07:01:17.047Z,90.80
2018-03-19T07:03:44.633Z,90.70
2018-03-19T07:06:12.193Z,90.00
2018-03-19T07:08:39.881Z,90.20
2018-03-19T07:11:07.436Z,90.10
2018-03-19T07:13:35.007Z,90.30
2018-03-19T07:16:02.606Z,90.20
2018-03-19T07:18:30.170Z,90.40
2018-03-19T07:20:57.755Z,90.30
2018-03-19T07:23:25.373Z,89.20
2018-03-19T07:25:52.959Z,90.00
2018-03-19T07:28:21.305Z,90.00
2018-03-19T07:30:48.904Z,90.00
2018-03-19T07:33:18.199Z,89.00
2018-03-19T07:35:46.635Z,89.40
2018-03-19T07:38:14.243Z,90.00
2018-03-19T07:40:42.574Z,89.80
2018-03-19T07:43:10.136Z,89.70
2018-03-19T07:45:37.767Z,90.00
2018-03-19T07:48:05.356Z,89.90
2018-03-19T07:50:32.923Z,88.60
2018-03-19T07:53:00.530Z,88.10
2018-03-19T07:55:28.957Z,87.90
2018-03-19T07:57:56.813Z,87.90
2018-03-19T08:00:24.439Z,87.60
2018-03-19T08:02:52.781Z,88.30
2018-03-19T08:05:20.360Z,88.30
2018-03-19T08:07:47.955Z,87.80
2018-03-19T08:10:15.535Z,86.20
2018-03-19T08:12:43.168Z,87.90
2018-03-19T08:15:10.777Z,87.00
2018-03-19T08:17:38.341Z,86.90
2018-03-19T08:20:05.927Z,85.50
2018-03-19T08:22:33.550Z,86.40
2018-03-19T08:25:01.123Z,85.40
2018-03-19T08:27:28.710Z,85.00
2018-03-19T08:29:56.303Z,86.40
2018-03-19T08:32:23.867Z,86.60
2018-03-19T08:34:51.437Z,86.80
2018-03-19T08:37:19.024Z,83.80
2018-03-19T08:39:46.624Z,85.00
2018-03-19T08:42:14.980Z,85.10
2018-03-19T08:44:44.225Z,83.20
2018-03-19T08:47:12.596Z,84.60
2018-03-19T08:49:40.940Z,85.30
2018-03-19T08:52:08.540Z,85.30
2018-03-19T08:54:36.874Z,83.90
2018-03-19T08:57:04.447Z,83.90
2018-03-19T08:59:41.721Z,82.10
2018-03-19T09:02:09.283Z,83.10
2018-03-19T09:04:36.855Z,83.10
2018-03-19T09:07:04.459Z,81.70
2018-03-19T09:09:32.020Z,81.60
2018-03-19T09:11:59.610Z,81.10
2018-03-19T09:14:27.214Z,80.00
2018-03-19T09:16:54.779Z,81.20
2018-03-19T09:19:23.102Z,80.50
2018-03-19T09:21:50.683Z,80.50
2018-03-19T09:24:18.238Z,80.10
2018-03-19T09:26:45.804Z,79.10
2018-03-19T09:29:13.394Z,78.50
2018-03-19T09:31:41.010Z,78.20
2018-03-19T09:34:08.566Z,79.90
2018-03-19T09:36:36.199Z,80.50
2018-03-19T09:39:03.748Z,79.70
2018-03-19T09:41:32.066Z,79.20
2018-03-19T09:43:59.666Z,79.10
2018-03-19T09:46:27.227Z,80.10
2018-03-19T09:48:54.792Z,79.00
2018-03-19T09:51:22.383Z,80.00
2018-03-19T09:53:49.952Z,79.30
2018-03-19T09:56:17.504Z,79.50
2018-03-19T09:58:45.101Z,79.70
2018-03-19T10:01:12.671Z,81.30
2018-03-19T10:03:40.219Z,80.30
2018-03-19T10:06:07.823Z,79.60
2018-03-19T10:08:36.192Z,79.40
2018-03-19T10:11:03.757Z,79.30
2018-03-19T10:13:31.343Z,77.70
2018-03-19T10:15:58.933Z,78.20
2018-03-19T10:18:26.517Z,78.60
2018-03-19T10:20:54.114Z,80.20
2018-03-19T10:23:21.679Z,78.50
2018-03-19T10:25:50.024Z,77.70
2018-03-19T10:28:17.668Z,77.60
2018-03-19T10:30:45.347Z,76.70
2018-03-19T10:33:13.496Z,78.40
2018-03-19T10:35:41.090Z,75.60
2018-03-19T10:38:08.649Z,76.20
2018-03-19T10:40:36.217Z,75.10
2018-03-19T10:43:03.810Z,76.90
2018-03-19T10:45:31.375Z,77.40
2018-03-19T10:47:58.985Z,77.10
2018-03-19T10:50:26.590Z,76.10
2018-03-19T10:52:54.246Z,76.40
2018-03-19T10:55:21.810Z,76.50
2018-03-19T10:57:50.148Z,76.30
2018-03-19T11:00:17.713Z,76.20
2018-03-19T11:02:51.015Z,77.40
2018-03-19T11:05:24.319Z,78.80
2018-03-19T11:07:58.308Z,77.40
2018-03-19T11:10:25.862Z,77.30
2018-03-19T11:12:53.417Z,76.80
2018-03-19T11:15:21.783Z,75.70
2018-03-19T11:17:49.376Z,75.70
2018-03-19T11:20:16.955Z,75.80
2018-03-19T11:22:45.387Z,75.90
2018-03-19T11:25:12.970Z,75.90
2018-03-19T11:27:40.528Z,75.50
2018-03-19T11:30:08.135Z,76.00
2018-03-19T11:32:35.694Z,76.00
2018-03-19T11:35:03.245Z,75.90
2018-03-19T11:37:31.591Z,74.70
2018-03-19T11:39:59.172Z,74.60
2018-03-19T11:42:26.740Z,72.90
2018-03-19T11:44:55.471Z,72.80
2018-03-19T11:47:23.061Z,72.80
2018-03-19T11:49:50.647Z,73.20
2018-03-19T11:52:19.031Z,71.90
2018-03-19T11:54:47.366Z,71.40
2018-03-19T11:57:14.956Z,71.40
2018-03-19T11:59:42.585Z,68.90
2018-03-19T12:02:10.150Z,70.50
2018-03-19T12:04:37.716Z,70.80
2018-03-19T12:07:05.327Z,70.20
2018-03-19T12:09:33.790Z,71.50
2018-03-19T12:12:02.120Z,73.00
2018-03-19T12:14:29.745Z,73.00
2018-03-19T12:16:58.116Z,69.60
2018-03-19T12:19:26.449Z,70.40
2018-03-19T12:21:54.031Z,70.30
2018-03-19T12:24:22.549Z,66.60
2018-03-19T12:26:50.737Z,68.50
2018-03-19T12:29:18.301Z,70.90
2018-03-19T12:31:45.869Z,71.30
2018-03-19T12:34:13.434Z,72.80
2018-03-19T12:36:41.961Z,70.20
2018-03-19T12:39:10.437Z,71.70
2018-03-19T12:41:38.002Z,70.90
2018-03-19T12:44:05.586Z,70.30
2018-03-19T12:46:33.917Z,70.80
2018-03-19T12:49:01.487Z,70.80
2018-03-19T12:51:31.033Z,69.30
2018-03-19T12:53:59.368Z,70.30
2018-03-19T12:56:26.976Z,70.30
2018-03-19T12:58:54.559Z,70.10
2018-03-19T13:01:22.131Z,69.20
2018-03-19T13:03:49.684Z,69.10
2018-03-19T13:06:17.268Z,70.10
2018-03-19T13:08:44.824Z,70.10
2018-03-19T13:11:12.400Z,68.70
2018-03-19T13:13:40.923Z,68.10
2018-03-19T13:16:08.480Z,68.70
2018-03-19T13:18:36.800Z,66.80
2018-03-19T13:21:04.397Z,66.80
2018-03-19T13:23:31.987Z,68.90
2018-03-19T13:26:00.296Z,68.10
2018-03-19T13:28:27.886Z,68.10
2018-03-19T13:30:55.440Z,66.90
2018-03-19T13:33:23.002Z,66.90
2018-03-19T13:35:50.649Z,66.60
2018-03-19T13:38:18.229Z,67.90
2018-03-19T13:40:45.805Z,66.50
2018-03-19T13:43:14.147Z,66.30
2018-03-19T13:45:41.726Z,66.20
2018-03-19T13:48:09.285Z,68.90
2018-03-19T13:50:37.188Z,68.60
2018-03-19T13:53:05.540Z,69.30
2018-03-19T13:55:33.095Z,69.40
2018-03-19T13:58:00.672Z,69.10
2018-03-19T14:00:28.279Z,70.40
2018-03-19T14:02:55.880Z,70.20
2018-03-19T14:05:23.472Z,70.10
2018-03-19T14:07:52.433Z,73.20
2018-03-19T14:10:20.019Z,73.30
2018-03-19T14:12:48.340Z,71.80
2018-03-19T14:15:15.927Z,71.80
2018-03-19T14:17:43.520Z,73.00
2018-03-19T14:20:11.503Z,73.10
2018-03-19T14:22:42.426Z,71.20
2018-03-19T14:25:11.499Z,71.50
2018-03-19T14:27:39.127Z,71.50
2018-03-19T14:30:06.665Z,72.90
2018-03-19T14:32:34.242Z,73.10
2018-03-19T14:35:01.787Z,73.40
2018-03-19T14:37:29.387Z,74.60
2018-03-19T14:39:57.000Z,73.70
2018-03-19T14:42:24.575Z,76.20
2018-03-19T14:44:52.134Z,73.50
2018-03-19T14:47:19.696Z,73.30
2018-03-19T14:49:47.307Z,74.10
2018-03-19T14:52:14.871Z,72.50
2018-03-19T14:54:42.520Z,73.90
2018-03-19T14:57:10.036Z,72.10
2018-03-19T14:59:37.635Z,72.80
2018-03-19T15:02:05.191Z,73.50
2018-03-19T15:04:32.757Z,72.70
2018-03-19T15:07:00.338Z,72.80
2018-03-19T15:09:27.888Z,72.80
2018-03-19T15:11:55.457Z,73.40
2018-03-19T15:14:23.026Z,74.10
2018-03-19T15:16:51.409Z,74.00
2018-03-19T15:19:19.740Z,75.40
2018-03-19T15:21:47.299Z,75.40
2018-03-19T15:24:14.875Z,76.30
2018-03-19T15:26:43.395Z,75.60
2018-03-19T15:29:11.744Z,74.00
2018-03-19T15:31:40.068Z,74.60
2018-03-19T15:34:07.651Z,74.60
2018-03-19T15:36:35.216Z,73.50
2018-03-19T15:39:02.791Z,75.50
2018-03-19T15:41:30.368Z,73.30
2018-03-19T15:43:58.030Z,72.20
2018-03-19T15:46:31.394Z,72.90
2018-03-19T15:48:58.953Z,72.80
2018-03-19T15:51:26.518Z,73.70
2018-03-19T15:54:03.385Z,74.10
2018-03-19T15:56:30.941Z,74.20
2018-03-19T15:58:58.490Z,74.50
2018-03-19T16:01:26.073Z,73.70
2018-03-19T16:03:53.625Z,74.30
2018-03-19T16:06:21.184Z,73.50
2018-03-19T16:08:48.769Z,73.10
2018-03-19T16:11:16.336Z,74.60
2018-03-19T16:13:46.039Z,73.80
2018-03-19T16:16:13.663Z,74.70
2018-03-19T16:18:41.235Z,74.30
2018-03-19T16:21:08.791Z,75.50
2018-03-19T16:23:36.370Z,74.80
2018-03-19T16:29:01.637Z,75.20
2018-03-19T16:31:29.991Z,74.90
2018-03-19T16:34:06.538Z,74.90
2018-03-19T16:36:51.168Z,75.40
2018-03-19T16:39:34.194Z,75.50
2018-03-19T16:42:26.328Z,74.40
2018-03-19T16:44:54.702Z,73.30
2018-03-19T16:47:24.030Z,74.00
2018-03-19T16:49:51.590Z,73.90
2018-03-19T16:52:19.166Z,74.10
2018-03-19T16:54:46.706Z,73.80
2018-03-19T16:57:14.263Z,72.70
2018-03-19T16:59:41.855Z,74.30
2018-03-19T17:02:09.429Z,75.00
2018-03-19T17:07:47.337Z,76.60
2018-03-19T17:10:14.955Z,74.90
2018-03-19T17:12:43.282Z,75.60
2018-03-19T17:15:10.848Z,75.60
2018-03-19T17:17:38.527Z,76.00
2018-03-19T17:20:27.398Z,76.00
2018-03-19T17:22:54.987Z,75.90
2018-03-19T17:25:22.550Z,75.60
2018-03-19T17:28:08.519Z,75.20
2018-03-19T17:30:36.884Z,75.40
2018-03-19T17:33:04.433Z,75.30
2018-03-19T17:38:17.415Z,72.30
2018-03-19T17:40:44.975Z,72.20
2018-03-19T17:43:12.531Z,71.10
2018-03-19T17:45:58.307Z,72.80
2018-03-19T17:48:26.719Z,71.40
2018-03-19T17:50:54.394Z,71.40
2018-03-19T17:53:22.018Z,71.50
2018-03-19T17:58:53.152Z,72.20
2018-03-19T18:01:22.731Z,73.10
2018-03-19T18:03:50.293Z,72.50
2018-03-19T18:06:17.928Z,70.60
2018-03-19T18:08:45.514Z,70.90
2018-03-19T18:11:13.095Z,71.30
2018-03-19T18:13:40.711Z,73.00
2018-03-19T18:16:08.319Z,72.30
2018-03-19T18:18:35.894Z,72.50
2018-03-19T18:21:03.513Z,72.20
2018-03-19T18:23:31.104Z,72.00
2018-03-19T18:25:58.719Z,72.20
2018-03-19T18:28:26.339Z,71.80
2018-03-19T18:30:54.720Z,74.10
2018-03-19T18:33:22.342Z,74.10
2018-03-19T18:35:49.964Z,72.20
2018-03-19T18:38:18.312Z,75.40
2018-03-19T18:40:45.891Z,75.50
2018-03-19T18:43:14.307Z,71.50
2018-03-19T18:45:43.837Z,71.50
2018-03-19T18:48:22.893Z,71.50
2018-03-19T18:50:50.455Z,72.40
2018-03-19T18:53:18.062Z,72.50
2018-03-19T18:55:46.675Z,72.70
2018-03-19T18:58:19.243Z,73.00
2018-03-19T19:00:46.839Z,73.80
2018-03-19T19:03:14.570Z,72.30
2018-03-19T19:05:56.024Z,73.10
2018-03-19T19:08:23.650Z,73.50
2018-03-19T19:10:51.195Z,72.50
2018-03-19T19:13:18.772Z,73.40
2018-03-19T19:15:46.367Z,73.10
2018-03-19T19:18:13.948Z,73.50
2018-03-19T19:20:41.524Z,73.90
2018-03-19T19:23:09.090Z,73.30
2018-03-19T19:25:36.640Z,73.30
2018-03-19T19:28:04.223Z,74.40
2018-03-19T19:30:37.902Z,74.00
2018-03-19T19:33:05.504Z,75.30
2018-03-19T19:35:33.067Z,74.20
2018-03-19T19:38:01.417Z,73.50
2018-03-19T19:40:29.012Z,73.50
2018-03-19T19:43:09.963Z,75.00
2018-03-19T19:45:37.540Z,74.30
2018-03-19T19:48:05.115Z,74.30
2018-03-19T19:50:33.432Z,74.80
2018-03-19T19:53:01.022Z,74.40
2018-03-19T19:55:28.581Z,74.30
2018-03-19T20:01:00.620Z,74.20
2018-03-19T20:03:28.993Z,72.80
2018-03-19T20:05:57.315Z,73.30
2018-03-19T20:08:24.920Z,73.30
2018-03-19T20:10:53.277Z,72.10
2018-03-19T20:13:20.846Z,72.10
2018-03-19T20:15:48.427Z,73.10
2018-03-19T20:18:16.807Z,72.00
2018-03-19T20:20:45.128Z,72.60
2018-03-19T20:23:12.687Z,72.70
2018-03-19T20:25:43.939Z,73.00
2018-03-19T20:28:11.495Z,73.90
2018-03-19T20:30:39.087Z,72.70
2018-03-19T20:33:16.936Z,72.60
2018-03-19T20:35:44.505Z,73.10
2018-03-19T20:38:18.539Z,72.90
2018-03-19T20:40:46.096Z,72.60
2018-03-19T20:43:26.705Z,73.20
2018-03-19T20:46:18.140Z,73.40
2018-03-19T20:48:52.593Z,74.70
2018-03-19T20:51:43.852Z,73.40
2018-03-19T20:54:11.447Z,73.60
2018-03-19T20:59:41.942Z,73.40
2018-03-19T21:05:11.316Z,73.30
2018-03-19T21:07:42.593Z,73.30
2018-03-19T21:10:10.164Z,72.40
2018-03-19T21:12:39.795Z,73.70
2018-03-19T21:15:07.367Z,73.00
2018-03-19T21:17:34.935Z,73.70
2018-03-19T21:20:03.366Z,73.60
2018-03-19T21:22:30.931Z,73.40
2018-03-19T21:24:58.500Z,72.90
2018-03-19T21:27:26.085Z,72.60
2018-03-19T21:29:53.663Z,73.20
2018-03-19T21:32:22.003Z,73.30
2018-03-19T21:34:49.610Z,73.20
2018-03-19T21:37:17.220Z,75.40
2018-03-19T21:39:44.794Z,72.60
2018-03-19T21:42:12.372Z,71.00
2018-03-19T21:44:39.951Z,72.00
2018-03-19T21:47:07.529Z,72.80
2018-03-19T21:49:35.871Z,76.00
2018-03-19T21:54:56.383Z,72.30
2018-03-19T21:57:23.966Z,72.10
2018-03-19T21:59:52.292Z,71.00
2018-03-19T22:02:27.416Z,71.00
2018-03-19T22:04:55.005Z,71.60
2018-03-19T22:07:22.589Z,72.80
2018-03-19T22:09:50.967Z,72.90
2018-03-19T22:12:18.543Z,72.90
2018-03-19T22:14:46.870Z,77.10
2018-03-19T22:17:14.462Z,77.10
2018-03-19T22:19:42.036Z,75.90
2018-03-19T22:22:10.384Z,73.90
2018-03-19T22:24:37.992Z,73.90
2018-03-19T22:27:05.558Z,74.40
2018-03-19T22:29:33.120Z,75.30
2018-03-19T22:32:00.765Z,76.40
2018-03-19T22:34:28.290Z,77.70
2018-03-19T22:36:55.864Z,79.40
2018-03-19T22:39:44.315Z,79.20
2018-03-19T22:42:12.648Z,76.80
2018-03-19T22:44:40.222Z,76.30
2018-03-19T22:47:07.819Z,75.10
2018-03-19T22:49:35.392Z,74.90
2018-03-19T22:52:03.718Z,74.50
2018-03-19T22:54:31.350Z,74.50
2018-03-19T22:56:58.908Z,74.70
2018-03-19T22:59:26.503Z,74.90
2018-03-19T23:01:54.728Z,75.10
2018-03-19T23:04:34.894Z,75.80
2018-03-19T23:07:02.502Z,75.80
2018-03-19T23:09:30.075Z,76.20
2018-03-19T23:11:57.644Z,76.10
2018-03-19T23:14:25.237Z,76.00
2018-03-19T23:16:53.577Z,76.00
2018-03-19T23:19:21.145Z,76.00
2018-03-19T23:21:48.738Z,76.30
2018-03-19T23:24:16.310Z,76.30
2018-03-19T23:26:43.889Z,75.80
2018-03-19T23:29:11.488Z,76.50
2018-03-19T23:31:39.067Z,76.40
2018-03-19T23:34:07.405Z,76.30
2018-03-19T23:36:35.004Z,76.30
2018-03-19T23:39:03.349Z,77.80
2018-03-19T23:41:44.680Z,77.70
2018-03-19T23:44:13.015Z,75.00
2018-03-19T23:46:40.617Z,75.00
2018-03-19T23:49:08.986Z,75.00
2018-03-19T23:51:37.327Z,74.60
2018-03-19T23:54:04.899Z,74.60
2018-03-19T23:56:33.138Z,74.60
2018-03-19T23:59:00.713Z,75.80
